createdAt,value
2017-12-09T00:00:27.180Z,5.82
2017-12-09T00:02:53.123Z,6.30
2017-12-09T00:05:19.045Z,5.77
2017-12-09T00:07:44.971Z,6.47
2017-12-09T00:10:11.691Z,5.47
2017-12-09T00:12:37.643Z,5.10
2017-12-09T00:15:03.629Z,6.00
2017-12-09T00:17:29.748Z,6.47
2017-12-09T00:19:55.654Z,7.37
2017-12-09T00:22:33.898Z,5.87
2017-12-09T00:25:00.927Z,5.68
2017-12-09T00:27:27.682Z,5.47
2017-12-09T00:29:54.427Z,6.30
2017-12-09T00:32:20.591Z,5.87
2017-12-09T00:34:47.381Z,5.87
2017-12-09T00:37:13.339Z,5.78
2017-12-09T00:39:39.246Z,6.77
2017-12-09T00:42:05.176Z,6.33
2017-12-09T00:44:31.118Z,6.60
2017-12-09T00:46:57.093Z,6.83
2017-12-09T00:49:22.995Z,7.73
2017-12-09T00:51:49.697Z,7.27
2017-12-09T00:54:16.051Z,8.38
2017-12-09T00:56:42.722Z,6.82
2017-12-09T00:59:08.647Z,7.50
2017-12-09T01:01:34.559Z,7.60
2017-12-09T01:04:00.470Z,7.43
2017-12-09T01:06:26.412Z,7.53
2017-12-09T01:08:53.152Z,9.50
2017-12-09T01:11:20.041Z,7.10
2017-12-09T01:13:45.956Z,7.37
2017-12-09T01:16:24.222Z,6.83
2017-12-09T01:18:56.053Z,7.20
2017-12-09T01:21:22.753Z,8.85
2017-12-09T01:23:48.700Z,6.75
2017-12-09T01:26:14.681Z,6.83
2017-12-09T01:28:40.643Z,6.90
2017-12-09T01:31:07.418Z,7.00
2017-12-09T01:33:33.330Z,7.45
2017-12-09T01:36:00.174Z,8.00
2017-12-09T01:38:26.141Z,6.80
2017-12-09T01:40:52.136Z,6.10
2017-12-09T01:43:18.114Z,6.85
2017-12-09T01:45:44.911Z,7.20
2017-12-09T01:48:10.869Z,7.18
2017-12-09T01:50:36.783Z,7.10
2017-12-09T01:53:02.756Z,6.40
2017-12-09T01:55:28.794Z,7.50
2017-12-09T01:57:54.756Z,7.18
2017-12-09T02:00:21.418Z,6.67
2017-12-09T02:02:47.317Z,7.50
2017-12-09T02:05:13.228Z,7.20
2017-12-09T02:07:39.132Z,7.10
2017-12-09T02:10:05.078Z,7.17
2017-12-09T02:12:32.051Z,7.43
2017-12-09T02:14:57.969Z,7.53
2017-12-09T02:17:23.877Z,7.73
2017-12-09T02:19:49.786Z,7.43
2017-12-09T02:22:15.724Z,6.30
2017-12-09T02:24:42.084Z,6.23
2017-12-09T02:27:08.354Z,6.50
2017-12-09T02:29:35.047Z,6.97
2017-12-09T02:32:00.964Z,7.15
2017-12-09T02:34:27.409Z,6.23
2017-12-09T02:36:53.321Z,6.70
2017-12-09T02:39:19.239Z,6.30
2017-12-09T02:41:45.220Z,6.63
2017-12-09T02:44:11.351Z,6.53
2017-12-09T02:46:37.275Z,6.22
2017-12-09T02:49:03.193Z,7.70
2017-12-09T02:51:29.813Z,6.20
2017-12-09T02:53:55.732Z,6.40
2017-12-09T02:56:22.379Z,6.87
2017-12-09T02:58:49.026Z,5.90
2017-12-09T03:01:14.956Z,7.00
2017-12-09T03:03:40.965Z,5.67
2017-12-09T03:06:06.938Z,5.85
2017-12-09T03:08:32.843Z,6.50
2017-12-09T03:10:58.738Z,6.30
2017-12-09T03:13:24.662Z,6.17
2017-12-09T03:15:50.551Z,6.53
2017-12-09T03:18:16.605Z,6.80
2017-12-09T03:20:42.519Z,6.30
2017-12-09T03:23:08.412Z,6.23
2017-12-09T03:25:34.307Z,5.77
2017-12-09T03:28:00.240Z,5.80
2017-12-09T03:30:26.200Z,6.07
2017-12-09T03:32:52.167Z,6.10
2017-12-09T03:35:18.100Z,5.47
2017-12-09T03:37:44.038Z,6.93
2017-12-09T03:40:10.699Z,6.13
2017-12-09T03:42:36.629Z,5.90
2017-12-09T03:45:02.531Z,6.17
2017-12-09T03:47:29.218Z,5.40
2017-12-09T03:49:55.153Z,5.80
2017-12-09T03:52:21.079Z,5.70
2017-12-09T03:54:46.992Z,5.93
2017-12-09T03:57:12.913Z,5.93
2017-12-09T03:59:38.829Z,5.80
2017-12-09T04:02:04.773Z,5.13
2017-12-09T04:04:30.696Z,5.70
2017-12-09T04:06:57.475Z,5.53
2017-12-09T04:09:23.393Z,5.57
2017-12-09T04:11:49.318Z,5.40
2017-12-09T04:14:15.230Z,5.10
2017-12-09T04:16:41.143Z,5.57
2017-12-09T04:19:07.115Z,4.97
2017-12-09T04:21:33.060Z,5.17
2017-12-09T04:23:59.684Z,5.70
2017-12-09T04:26:25.654Z,5.53
2017-12-09T04:28:51.570Z,4.67
2017-12-09T04:31:17.502Z,5.33
2017-12-09T04:33:43.403Z,4.53
2017-12-09T04:36:09.325Z,5.40
2017-12-09T04:38:35.259Z,5.17
2017-12-09T04:41:01.313Z,4.43
2017-12-09T04:43:27.215Z,5.65
2017-12-09T04:45:53.151Z,5.30
2017-12-09T04:48:19.702Z,4.80
2017-12-09T04:50:45.619Z,5.65
2017-12-09T04:53:11.532Z,5.33
2017-12-09T04:55:37.470Z,5.57
2017-12-09T04:58:03.371Z,5.13
2017-12-09T05:00:29.312Z,5.50
2017-12-09T05:02:55.211Z,5.93
2017-12-09T05:05:21.970Z,5.80
2017-12-09T05:07:48.625Z,5.30
2017-12-09T05:10:15.313Z,6.43
2017-12-09T05:12:41.245Z,5.40
2017-12-09T05:15:07.147Z,5.00
2017-12-09T05:17:33.050Z,5.23
2017-12-09T05:19:59.016Z,6.10
2017-12-09T05:22:24.926Z,5.10
2017-12-09T05:24:50.851Z,5.30
2017-12-09T05:27:16.804Z,6.40
2017-12-09T05:29:42.747Z,6.13
2017-12-09T05:32:08.702Z,4.63
2017-12-09T05:34:34.633Z,5.60
2017-12-09T05:37:00.555Z,5.40
2017-12-09T05:39:26.488Z,5.67
2017-12-09T05:41:52.407Z,5.80
2017-12-09T05:44:18.306Z,5.20
2017-12-09T05:46:44.210Z,5.57
2017-12-09T05:49:10.172Z,6.00
2017-12-09T05:51:36.090Z,5.53
2017-12-09T05:54:02.011Z,6.30
2017-12-09T05:56:27.939Z,5.73
2017-12-09T05:58:54.570Z,5.90
2017-12-09T06:01:20.507Z,6.12
2017-12-09T06:03:46.554Z,6.10
2017-12-09T06:06:13.015Z,5.65
2017-12-09T06:08:38.922Z,5.45
2017-12-09T06:11:04.960Z,5.70
2017-12-09T06:13:30.935Z,5.70
2017-12-09T06:15:56.887Z,5.43
2017-12-09T06:18:22.802Z,5.77
2017-12-09T06:20:48.753Z,5.33
2017-12-09T06:23:14.693Z,6.47
2017-12-09T06:25:40.690Z,5.77
2017-12-09T06:28:06.583Z,5.37
2017-12-09T06:30:32.492Z,5.57
2017-12-09T06:32:58.383Z,4.80
2017-12-09T06:35:25.015Z,6.07
2017-12-09T06:37:51.028Z,6.20
2017-12-09T06:40:17.683Z,5.60
2017-12-09T06:42:44.348Z,5.75
2017-12-09T06:45:10.334Z,5.95
2017-12-09T06:47:37.017Z,6.80
2017-12-09T06:50:03.003Z,5.78
2017-12-09T06:52:28.921Z,6.75
2017-12-09T06:54:55.587Z,5.87
2017-12-09T06:57:21.523Z,5.82
2017-12-09T06:59:47.991Z,5.80
2017-12-09T07:02:13.916Z,5.80
2017-12-09T07:04:39.856Z,5.90
2017-12-09T07:07:06.595Z,6.20
2017-12-09T07:09:32.565Z,7.10
2017-12-09T07:11:58.510Z,6.07
2017-12-09T07:14:24.718Z,5.20
2017-12-09T07:16:50.604Z,6.30
2017-12-09T07:19:16.530Z,5.33
2017-12-09T07:21:42.543Z,7.23
2017-12-09T07:24:08.443Z,5.72
2017-12-09T07:26:35.316Z,5.50
2017-12-09T07:29:01.267Z,6.97
2017-12-09T07:31:27.181Z,5.23
2017-12-09T07:33:53.129Z,5.93
2017-12-09T07:36:19.101Z,4.97
2017-12-09T07:38:45.093Z,6.13
2017-12-09T07:41:11.774Z,6.20
2017-12-09T07:43:37.665Z,5.78
2017-12-09T07:46:04.362Z,6.70
2017-12-09T07:48:30.341Z,6.15
2017-12-09T07:50:56.268Z,5.73
2017-12-09T07:53:22.150Z,6.60
2017-12-09T07:55:48.840Z,6.87
2017-12-09T07:58:14.950Z,5.70
2017-12-09T08:00:40.979Z,6.57
2017-12-09T08:03:06.890Z,6.07
2017-12-09T08:05:32.800Z,6.07
2017-12-09T08:07:58.714Z,6.13
2017-12-09T08:10:24.651Z,4.40
2017-12-09T08:12:50.943Z,4.80
2017-12-09T08:15:16.853Z,7.85
2017-12-09T08:17:42.777Z,6.37
2017-12-09T08:20:08.708Z,6.87
2017-12-09T08:22:34.627Z,7.40
2017-12-09T08:25:00.534Z,5.57
2017-12-09T08:27:26.414Z,5.50
2017-12-09T08:29:52.326Z,5.67
2017-12-09T08:32:19.169Z,4.90
2017-12-09T08:34:45.155Z,5.72
2017-12-09T08:37:11.075Z,4.70
2017-12-09T08:39:37.039Z,4.57
2017-12-09T08:42:03.021Z,4.77
2017-12-09T08:44:29.669Z,5.23
2017-12-09T08:46:55.633Z,5.10
2017-12-09T08:49:21.545Z,6.30
2017-12-09T08:51:47.544Z,5.20
2017-12-09T08:54:13.454Z,5.32
2017-12-09T08:56:39.991Z,5.10
2017-12-09T08:59:05.908Z,5.37
2017-12-09T09:01:31.861Z,5.23
2017-12-09T09:03:57.846Z,5.10
2017-12-09T09:06:24.781Z,4.93
2017-12-09T09:08:51.591Z,4.93
2017-12-09T09:11:18.148Z,5.20
2017-12-09T09:13:44.703Z,4.82
2017-12-09T09:16:10.642Z,4.53
2017-12-09T09:18:36.593Z,6.87
2017-12-09T09:21:02.666Z,5.10
2017-12-09T09:23:28.565Z,4.95
2017-12-09T09:25:54.487Z,4.80
2017-12-09T09:28:21.184Z,5.80
2017-12-09T09:30:47.195Z,4.30
2017-12-09T09:33:13.122Z,4.87
2017-12-09T09:35:39.045Z,5.00
2017-12-09T09:38:05.065Z,5.77
2017-12-09T09:40:31.666Z,6.18
2017-12-09T09:42:58.166Z,5.12
2017-12-09T09:45:24.059Z,4.80
2017-12-09T09:47:49.999Z,5.77
2017-12-09T09:50:15.932Z,4.73
2017-12-09T09:52:42.095Z,4.83
2017-12-09T09:55:08.280Z,5.90
2017-12-09T09:57:34.220Z,5.20
2017-12-09T10:00:00.965Z,5.40
2017-12-09T10:02:26.909Z,5.78
2017-12-09T10:04:52.835Z,5.20
2017-12-09T10:07:19.646Z,5.00
2017-12-09T10:09:46.301Z,5.40
2017-12-09T10:12:12.227Z,5.15
2017-12-09T10:14:38.359Z,5.50
2017-12-09T10:17:05.824Z,4.95
2017-12-09T10:19:32.158Z,5.28
2017-12-09T10:21:58.141Z,4.47
2017-12-09T10:24:24.143Z,4.87
2017-12-09T10:26:50.047Z,5.62
2017-12-09T10:29:16.148Z,5.20
2017-12-09T10:31:42.071Z,4.72
2017-12-09T10:34:08.808Z,5.50
2017-12-09T10:36:34.800Z,4.75
2017-12-09T10:39:00.785Z,5.00
2017-12-09T10:41:27.636Z,4.90
2017-12-09T10:43:54.270Z,5.43
2017-12-09T10:46:21.369Z,4.80
2017-12-09T10:48:48.121Z,4.95
2017-12-09T10:51:14.032Z,4.22
2017-12-09T10:53:40.013Z,5.10
2017-12-09T10:56:07.971Z,6.20
2017-12-09T10:58:34.659Z,4.72
2017-12-09T11:01:00.584Z,4.28
2017-12-09T11:03:26.582Z,4.10
2017-12-09T11:05:55.216Z,4.40
2017-12-09T11:08:21.236Z,4.90
2017-12-09T11:10:48.125Z,3.90
2017-12-09T11:13:14.079Z,4.25
2017-12-09T11:15:40.049Z,4.60
2017-12-09T11:18:06.859Z,4.40
2017-12-09T11:20:33.018Z,4.53
2017-12-09T11:23:00.598Z,4.25
2017-12-09T11:25:26.546Z,4.25
2017-12-09T11:27:52.447Z,5.30
2017-12-09T11:30:18.794Z,4.60
2017-12-09T11:32:45.537Z,4.20
2017-12-09T11:35:11.431Z,4.40
2017-12-09T11:37:37.632Z,4.50
2017-12-09T11:40:05.187Z,4.53
2017-12-09T11:42:31.191Z,4.70
2017-12-09T11:44:57.805Z,3.95
2017-12-09T11:47:23.859Z,4.45
2017-12-09T11:49:51.647Z,4.62
2017-12-09T11:52:17.589Z,4.32
2017-12-09T11:54:43.536Z,4.43
2017-12-09T11:57:11.185Z,4.47
2017-12-09T11:59:40.748Z,4.20
2017-12-09T12:02:07.411Z,4.37
2017-12-09T12:04:36.432Z,4.57
2017-12-09T12:07:04.776Z,4.82
2017-12-09T12:09:31.397Z,4.35
2017-12-09T12:11:58.640Z,4.45
2017-12-09T12:14:24.584Z,4.10
2017-12-09T12:16:50.538Z,5.07
2017-12-09T12:19:16.459Z,4.70
2017-12-09T12:21:42.400Z,4.27
2017-12-09T12:24:08.362Z,4.07
2017-12-09T12:26:34.403Z,4.87
2017-12-09T12:29:00.565Z,4.45
2017-12-09T12:31:26.518Z,4.40
2017-12-09T12:33:53.213Z,4.27
2017-12-09T12:36:19.155Z,4.12
2017-12-09T12:38:47.043Z,4.47
2017-12-09T12:41:13.783Z,4.07
2017-12-09T12:43:40.473Z,4.32
2017-12-09T12:46:07.411Z,3.75
2017-12-09T12:48:33.567Z,3.78
2017-12-09T12:50:59.858Z,4.62
2017-12-09T12:53:25.843Z,5.03
2017-12-09T12:55:51.940Z,4.50
2017-12-09T12:58:17.900Z,4.60
2017-12-09T13:00:43.834Z,4.07
2017-12-09T13:03:09.769Z,5.47
2017-12-09T13:05:36.383Z,4.23
2017-12-09T13:08:02.331Z,4.50
2017-12-09T13:10:29.782Z,5.50
2017-12-09T13:12:55.970Z,5.00
2017-12-09T13:15:22.843Z,4.80
2017-12-09T13:17:50.449Z,5.10
2017-12-09T13:20:17.258Z,4.60
2017-12-09T13:22:44.561Z,5.90
2017-12-09T13:25:11.470Z,6.05
2017-12-09T13:27:38.991Z,5.72
2017-12-09T13:30:05.034Z,6.25
2017-12-09T13:32:30.989Z,6.15
2017-12-09T13:34:57.913Z,8.17
2017-12-09T13:37:24.189Z,6.28
2017-12-09T13:39:51.865Z,5.47
2017-12-09T13:42:22.243Z,6.40
2017-12-09T13:44:56.152Z,7.53
2017-12-09T13:47:25.897Z,6.25
2017-12-09T13:49:55.646Z,8.15
2017-12-09T13:52:25.129Z,8.65
2017-12-09T13:54:52.430Z,6.60
2017-12-09T13:57:20.177Z,6.60
2017-12-09T13:59:46.119Z,7.43
2017-12-09T14:02:12.074Z,6.50
2017-12-09T14:04:38.729Z,6.67
2017-12-09T14:07:06.780Z,6.82
2017-12-09T14:09:32.708Z,7.30
2017-12-09T14:11:59.056Z,6.70
2017-12-09T14:14:25.594Z,6.68
2017-12-09T14:16:51.543Z,6.10
2017-12-09T14:19:17.469Z,5.93
2017-12-09T14:21:44.616Z,6.33
2017-12-09T14:24:11.325Z,7.10
2017-12-09T14:26:38.628Z,5.70
2017-12-09T14:29:05.330Z,5.93
2017-12-09T14:31:32.296Z,5.60
2017-12-09T14:34:00.662Z,5.85
2017-12-09T14:36:28.131Z,5.43
2017-12-09T14:38:58.180Z,6.28
2017-12-09T14:41:27.982Z,5.95
2017-12-09T14:43:54.541Z,5.80
2017-12-09T14:46:22.202Z,6.05
2017-12-09T14:48:48.160Z,5.82
2017-12-09T14:51:14.211Z,5.40
2017-12-09T14:53:40.228Z,5.22
2017-12-09T14:56:08.687Z,5.60
2017-12-09T14:58:35.463Z,5.55
2017-12-09T15:01:02.603Z,4.90
2017-12-09T15:03:29.760Z,5.55
2017-12-09T15:05:56.478Z,5.53
2017-12-09T15:08:24.094Z,4.87
2017-12-09T15:10:50.086Z,5.18
2017-12-09T15:13:17.570Z,5.40
2017-12-09T15:15:45.128Z,5.07
2017-12-09T15:18:11.051Z,4.60
2017-12-09T15:20:38.411Z,4.60
2017-12-09T15:23:05.207Z,5.22
2017-12-09T15:25:32.569Z,4.82
2017-12-09T15:27:58.674Z,5.65
2017-12-09T15:30:25.119Z,5.25
2017-12-09T15:32:51.431Z,5.15
2017-12-09T15:35:19.432Z,4.72
2017-12-09T15:37:47.694Z,4.55
2017-12-09T15:40:14.284Z,4.85
2017-12-09T15:42:40.264Z,5.40
2017-12-09T15:45:06.185Z,4.97
2017-12-09T15:47:32.159Z,4.43
2017-12-09T15:49:59.068Z,5.60
2017-12-09T15:52:25.055Z,5.40
2017-12-09T15:54:50.970Z,5.43
2017-12-09T15:57:17.954Z,5.13
2017-12-09T15:59:45.735Z,4.70
2017-12-09T16:02:12.092Z,4.90
2017-12-09T16:04:38.039Z,5.90
2017-12-09T16:07:04.568Z,4.80
2017-12-09T16:09:31.057Z,5.22
2017-12-09T16:11:57.029Z,6.03
2017-12-09T16:14:24.423Z,4.93
2017-12-09T16:16:51.454Z,4.55
2017-12-09T16:19:17.600Z,4.57
2017-12-09T16:21:43.551Z,5.30
2017-12-09T16:24:10.529Z,5.60
2017-12-09T16:26:36.571Z,4.72
2017-12-09T16:29:03.931Z,4.30
2017-12-09T16:31:30.215Z,4.45
2017-12-09T16:33:56.920Z,4.82
2017-12-09T16:36:23.658Z,5.00
2017-12-09T16:38:50.814Z,5.25
2017-12-09T16:41:16.807Z,4.97
2017-12-09T16:43:43.648Z,4.27
2017-12-09T16:46:09.579Z,5.82
2017-12-09T16:48:35.531Z,4.60
2017-12-09T16:51:03.782Z,4.53
2017-12-09T16:53:29.889Z,4.78
2017-12-09T16:55:58.176Z,4.60
2017-12-09T16:58:24.146Z,5.07
2017-12-09T17:00:52.525Z,4.33
2017-12-09T17:03:19.393Z,4.45
2017-12-09T17:05:45.400Z,3.97
2017-12-09T17:08:12.253Z,4.60
2017-12-09T17:10:38.426Z,4.35
2017-12-09T17:13:04.410Z,4.68
2017-12-09T17:15:30.362Z,4.70
2017-12-09T17:18:00.283Z,4.43
2017-12-09T17:20:29.929Z,4.53
2017-12-09T17:22:55.959Z,4.60
2017-12-09T17:25:22.243Z,4.90
2017-12-09T17:27:48.903Z,5.10
2017-12-09T17:30:14.946Z,4.93
2017-12-09T17:32:41.603Z,3.92
2017-12-09T17:35:07.537Z,4.05
2017-12-09T17:37:33.980Z,4.60
2017-12-09T17:40:00.517Z,4.37
2017-12-09T17:42:27.437Z,4.53
2017-12-09T17:44:53.431Z,4.87
2017-12-09T17:47:19.485Z,4.15
2017-12-09T17:49:45.487Z,4.03
2017-12-09T17:52:12.813Z,4.70
2017-12-09T17:54:40.220Z,5.87
2017-12-09T17:57:06.244Z,4.20
2017-12-09T17:59:32.950Z,4.00
2017-12-09T18:01:59.457Z,4.40
2017-12-09T18:04:25.431Z,4.10
2017-12-09T18:06:52.196Z,4.03
2017-12-09T18:09:20.480Z,4.60
2017-12-09T18:11:46.508Z,4.30
2017-12-09T18:14:12.582Z,4.50
2017-12-09T18:16:39.724Z,4.80
2017-12-09T18:19:05.703Z,3.47
2017-12-09T18:21:31.711Z,3.80
2017-12-09T18:23:58.734Z,4.32
2017-12-09T18:26:24.690Z,3.78
2017-12-09T18:28:50.598Z,4.20
2017-12-09T18:31:16.843Z,4.60
2017-12-09T18:33:43.548Z,3.60
2017-12-09T18:36:09.668Z,4.90
2017-12-09T18:38:35.613Z,3.70
2017-12-09T18:41:01.771Z,4.13
2017-12-09T18:43:27.722Z,4.05
2017-12-09T18:45:54.379Z,3.90
2017-12-09T18:48:20.335Z,4.80
2017-12-09T18:50:47.248Z,5.83
2017-12-09T18:53:14.179Z,4.47
2017-12-09T18:55:40.113Z,4.50
2017-12-09T18:58:06.078Z,6.83
2017-12-09T19:00:32.030Z,4.67
2017-12-09T19:02:58.020Z,4.20
2017-12-09T19:05:23.979Z,4.40
2017-12-09T19:07:49.911Z,4.43
2017-12-09T19:10:15.875Z,4.70
2017-12-09T19:12:41.803Z,5.30
2017-12-09T19:15:08.429Z,5.27
2017-12-09T19:17:35.014Z,5.75
2017-12-09T19:20:01.060Z,5.07
2017-12-09T19:22:27.043Z,5.80
2017-12-09T19:24:53.005Z,4.33
2017-12-09T19:27:19.178Z,5.03
2017-12-09T19:29:45.139Z,6.65
2017-12-09T19:32:11.692Z,5.47
2017-12-09T19:34:37.699Z,5.20
2017-12-09T19:37:03.921Z,5.53
2017-12-09T19:39:31.603Z,5.10
2017-12-09T19:41:57.755Z,4.85
2017-12-09T19:44:26.025Z,5.40
2017-12-09T19:46:55.734Z,5.80
2017-12-09T19:51:55.369Z,5.50
2017-12-09T19:54:23.074Z,5.45
2017-12-09T19:56:50.517Z,6.28
2017-12-09T19:59:17.529Z,6.20
2017-12-09T20:01:47.045Z,7.37
2017-12-09T20:04:13.593Z,5.80
2017-12-09T20:06:40.421Z,5.53
2017-12-09T20:09:07.363Z,6.10
2017-12-09T20:11:34.590Z,6.50
2017-12-09T20:14:02.576Z,5.03
2017-12-09T20:16:30.206Z,5.65
2017-12-09T20:18:58.415Z,5.40
2017-12-09T20:21:26.281Z,5.90
2017-12-09T20:23:53.137Z,5.70
2017-12-09T20:26:19.965Z,5.82
2017-12-09T20:28:48.349Z,5.75
2017-12-09T20:31:14.951Z,5.68
2017-12-09T20:33:43.375Z,6.40
2017-12-09T20:36:11.263Z,5.82
2017-12-09T20:38:40.763Z,5.60
2017-12-09T20:41:06.725Z,5.65
2017-12-09T20:43:35.763Z,9.57
2017-12-09T20:46:05.016Z,5.00
2017-12-09T20:48:33.738Z,14.02
2017-12-09T20:51:02.549Z,7.40
2017-12-09T20:53:29.869Z,5.57
2017-12-09T20:55:57.456Z,6.20
2017-12-09T20:58:25.634Z,5.80
2017-12-09T21:00:51.581Z,8.10
2017-12-09T21:03:23.328Z,5.90
2017-12-09T21:05:49.472Z,5.50
2017-12-09T21:08:21.671Z,5.43
2017-12-09T21:10:51.724Z,5.25
2017-12-09T21:13:21.004Z,5.72
2017-12-09T21:15:49.891Z,5.75
2017-12-09T21:18:19.439Z,5.53
2017-12-09T21:20:56.048Z,6.05
2017-12-09T21:23:24.052Z,5.87
2017-12-09T21:25:51.976Z,6.53
2017-12-09T21:28:19.443Z,5.90
2017-12-09T21:30:48.293Z,5.82
2017-12-09T21:33:14.663Z,5.60
2017-12-09T21:35:42.435Z,6.07
2017-12-09T21:38:09.413Z,6.25
2017-12-09T21:40:35.428Z,5.60
2017-12-09T21:43:02.457Z,5.65
2017-12-09T21:45:28.423Z,5.10
2017-12-09T21:47:55.242Z,6.07
2017-12-09T21:50:25.391Z,5.60
2017-12-09T21:52:51.386Z,5.50
2017-12-09T21:55:18.326Z,5.35
2017-12-09T21:57:44.556Z,5.32
2017-12-09T22:00:21.016Z,6.03
2017-12-09T22:02:49.643Z,6.65
2017-12-09T22:05:15.656Z,6.07
2017-12-09T22:07:41.611Z,5.82
2017-12-09T22:10:07.798Z,5.77
2017-12-09T22:12:37.068Z,6.00
2017-12-09T22:15:03.013Z,5.45
2017-12-09T22:17:36.171Z,6.27
2017-12-09T22:20:03.282Z,6.05
2017-12-09T22:22:29.245Z,5.60
2017-12-09T22:24:55.211Z,6.87
2017-12-09T22:27:21.175Z,4.90
2017-12-09T22:29:48.740Z,5.23
2017-12-09T22:32:14.659Z,6.22
2017-12-09T22:34:48.791Z,6.13
2017-12-09T22:37:15.196Z,5.70
2017-12-09T22:39:42.005Z,5.93
2017-12-09T22:42:09.641Z,6.07
2017-12-09T22:44:35.634Z,5.53
2017-12-09T22:47:01.662Z,5.60
2017-12-09T22:49:27.592Z,6.70
2017-12-09T22:51:53.512Z,6.30
2017-12-09T22:54:20.573Z,5.77
2017-12-09T22:56:47.971Z,5.87
2017-12-09T22:59:15.588Z,5.45
2017-12-09T23:01:41.553Z,5.43
2017-12-09T23:04:08.227Z,5.63
2017-12-09T23:06:34.160Z,6.10
2017-12-09T23:09:00.259Z,5.87
2017-12-09T23:11:26.220Z,6.18
2017-12-09T23:13:52.935Z,4.97
2017-12-09T23:16:20.630Z,5.18
2017-12-09T23:18:46.554Z,5.03
2017-12-09T23:21:12.497Z,5.13
2017-12-09T23:23:40.274Z,5.50
2017-12-09T23:26:06.929Z,4.93
2017-12-09T23:28:32.905Z,5.20
2017-12-09T23:30:59.288Z,5.03
2017-12-09T23:33:25.294Z,5.03
2017-12-09T23:35:51.227Z,4.07
2017-12-09T23:38:19.844Z,4.77
2017-12-09T23:40:45.918Z,4.68
2017-12-09T23:43:12.643Z,5.15
2017-12-09T23:45:38.591Z,4.35
2017-12-09T23:48:04.580Z,4.63
2017-12-09T23:50:30.616Z,3.93
2017-12-09T23:52:56.530Z,4.03
2017-12-09T23:55:22.446Z,5.73
2017-12-09T23:57:48.475Z,4.23
